createdAt,value
2022-08-12T00:00:54.173Z,11
2022-08-12T00:02:05.948Z,10
2022-08-12T00:03:07.741Z,10
2022-08-12T00:04:09.934Z,11
2022-08-12T00:05:10.947Z,11
2022-08-12T00:06:12.769Z,10
2022-08-12T00:07:14.315Z,10
2022-08-12T00:08:16.090Z,9
2022-08-12T00:09:38.272Z,8
2022-08-12T00:10:39.564Z,8
2022-08-12T00:11:41.410Z,9
2022-08-12T00:12:43.006Z,9
2022-08-12T00:13:44.802Z,9
2022-08-12T00:14:46.346Z,9
2022-08-12T00:15:51.000Z,9
2022-08-12T00:16:53.155Z,9
2022-08-12T00:17:54.249Z,9
2022-08-12T00:18:56.002Z,9
2022-08-12T00:19:57.215Z,9
2022-08-12T00:20:58.820Z,8
2022-08-12T00:21:59.831Z,8
2022-08-12T00:23:01.096Z,8
2022-08-12T00:24:02.892Z,8
2022-08-12T00:25:05.043Z,9
2022-08-12T00:26:24.727Z,9
2022-08-12T00:27:44.545Z,9
2022-08-12T00:28:45.878Z,9
2022-08-12T00:29:48.402Z,9
2022-08-12T00:30:50.217Z,10
2022-08-12T00:31:52.051Z,10
2022-08-12T00:32:57.361Z,9
2022-08-12T00:34:05.681Z,9
2022-08-12T00:35:09.319Z,8
2022-08-12T00:36:36.304Z,9
2022-08-12T00:37:44.312Z,9
2022-08-12T00:38:46.394Z,8
2022-08-12T00:39:47.825Z,8
2022-08-12T00:40:52.121Z,8
2022-08-12T00:41:53.665Z,8
2022-08-12T00:42:54.908Z,9
2022-08-12T00:43:56.534Z,9
2022-08-12T00:45:01.495Z,8
2022-08-12T00:46:02.726Z,8
2022-08-12T00:47:05.643Z,8
2022-08-12T00:48:26.770Z,8
2022-08-12T00:49:28.320Z,8
2022-08-12T00:50:30.101Z,9
2022-08-12T00:51:32.441Z,8
2022-08-12T00:52:35.859Z,10
2022-08-12T00:53:37.824Z,13
2022-08-12T00:54:39.611Z,16
2022-08-12T00:55:41.454Z,19
2022-08-12T00:56:42.449Z,19
2022-08-12T00:57:43.719Z,16
2022-08-12T00:58:44.886Z,14
2022-08-12T00:59:45.870Z,13
2022-08-12T01:00:47.426Z,12
2022-08-12T01:02:12.803Z,12
2022-08-12T01:03:15.034Z,11
2022-08-12T01:04:16.887Z,10
2022-08-12T01:05:18.683Z,10
2022-08-12T01:06:20.743Z,10
2022-08-12T01:07:22.297Z,10
2022-08-12T01:08:24.133Z,9
2022-08-12T01:09:25.179Z,9
2022-08-12T01:10:33.440Z,9
2022-08-12T01:11:34.778Z,9
2022-08-12T01:12:36.619Z,9
2022-08-12T01:13:38.370Z,9
2022-08-12T01:14:40.464Z,9
2022-08-12T01:15:42.232Z,9
2022-08-12T01:16:44.400Z,9
2022-08-12T01:17:46.218Z,9
2022-08-12T01:18:48.088Z,9
2022-08-12T01:19:49.642Z,9
2022-08-12T01:20:50.622Z,9
2022-08-12T01:21:51.628Z,9
2022-08-12T01:22:52.889Z,9
2022-08-12T01:23:53.882Z,9
2022-08-12T01:24:55.182Z,9
2022-08-12T01:25:56.864Z,9
2022-08-12T01:26:58.654Z,10
2022-08-12T01:28:00.203Z,10
2022-08-12T01:29:01.990Z,10
2022-08-12T01:30:04.783Z,9
2022-08-12T01:31:06.369Z,9
2022-08-12T01:32:07.388Z,9
2022-08-12T01:33:10.051Z,9
2022-08-12T01:34:37.812Z,9
2022-08-12T01:35:40.459Z,9
2022-08-12T01:36:42.009Z,9
2022-08-12T01:37:43.558Z,9
2022-08-12T01:38:44.540Z,9
2022-08-12T01:40:37.779Z,9
2022-08-12T01:41:54.005Z,9
2022-08-12T01:42:54.953Z,10
2022-08-12T01:43:56.463Z,10
2022-08-12T01:44:58.309Z,10
2022-08-12T01:46:00.428Z,10
2022-08-12T01:47:02.490Z,11
2022-08-12T01:48:05.284Z,11
2022-08-12T01:49:06.707Z,11
2022-08-12T01:50:08.585Z,11
2022-08-12T01:51:10.750Z,10
2022-08-12T01:53:20.735Z,10
2022-08-12T01:54:21.727Z,10
2022-08-12T01:55:22.707Z,10
2022-08-12T01:56:23.725Z,9
2022-08-12T01:58:00.467Z,9
2022-08-12T01:59:03.103Z,9
2022-08-12T02:00:04.065Z,9
2022-08-12T02:01:05.225Z,9
2022-08-12T02:02:07.502Z,9
2022-08-12T02:03:09.871Z,9
2022-08-12T02:04:11.981Z,9
2022-08-12T02:05:12.978Z,9
2022-08-12T02:06:14.538Z,8
2022-08-12T02:07:15.544Z,9
2022-08-12T02:08:17.131Z,9
2022-08-12T02:09:18.884Z,9
2022-08-12T02:10:52.214Z,9
2022-08-12T02:11:54.887Z,9
2022-08-12T02:13:09.451Z,9
2022-08-12T02:14:11.233Z,9
2022-08-12T02:15:12.483Z,9
2022-08-12T02:16:14.358Z,8
2022-08-12T02:17:15.390Z,8
2022-08-12T02:18:56.471Z,8
2022-08-12T02:19:57.733Z,8
2022-08-12T02:20:59.288Z,7
2022-08-12T02:22:04.979Z,7
2022-08-12T02:23:06.838Z,7
2022-08-12T02:24:08.705Z,8
2022-08-12T02:25:10.487Z,9
2022-08-12T02:26:11.728Z,11
2022-08-12T02:27:13.869Z,11
2022-08-12T02:28:15.643Z,11
2022-08-12T02:29:17.935Z,11
2022-08-12T02:30:19.243Z,11
2022-08-12T02:31:20.198Z,12
2022-08-12T02:32:21.488Z,11
2022-08-12T02:33:22.998Z,11
2022-08-12T02:34:24.800Z,10
2022-08-12T02:35:25.794Z,9
2022-08-12T02:36:28.257Z,10
2022-08-12T02:37:34.669Z,10
2022-08-12T02:38:35.661Z,11
2022-08-12T02:39:37.194Z,11
2022-08-12T02:40:38.950Z,10
2022-08-12T02:41:39.940Z,10
2022-08-12T02:42:41.231Z,9
2022-08-12T02:43:43.466Z,9
2022-08-12T02:44:44.904Z,10
2022-08-12T02:45:46.434Z,10
2022-08-12T02:46:47.948Z,11
2022-08-12T02:48:01.503Z,11
2022-08-12T02:49:03.263Z,11
2022-08-12T02:50:05.102Z,10
2022-08-12T02:51:06.862Z,9
2022-08-12T02:52:08.637Z,8
2022-08-12T02:53:10.184Z,8
2022-08-12T02:54:11.199Z,9
2022-08-12T02:55:34.223Z,10
2022-08-12T02:56:36.750Z,10
2022-08-12T02:57:39.009Z,10
2022-08-12T02:58:45.615Z,10
2022-08-12T02:59:48.025Z,10
2022-08-12T03:00:49.181Z,10
2022-08-12T03:01:50.790Z,10
2022-08-12T03:02:52.107Z,10
2022-08-12T03:03:53.313Z,10
2022-08-12T03:04:54.309Z,11
2022-08-12T03:05:56.467Z,11
2022-08-12T03:06:58.604Z,11
2022-08-12T03:08:00.890Z,11
2022-08-12T03:09:05.921Z,10
2022-08-12T03:10:23.098Z,11
2022-08-12T03:11:50.685Z,11
2022-08-12T03:12:56.930Z,10
2022-08-12T03:13:58.660Z,11
2022-08-12T03:14:59.647Z,11
2022-08-12T03:16:00.748Z,11
2022-08-12T03:17:01.758Z,12
2022-08-12T03:18:28.724Z,12
2022-08-12T03:19:30.363Z,11
2022-08-12T03:20:31.902Z,11
2022-08-12T03:22:09.763Z,10
2022-08-12T03:23:28.810Z,10
2022-08-12T03:24:34.479Z,10
2022-08-12T03:25:39.490Z,11
2022-08-12T03:26:40.509Z,12
2022-08-12T03:27:42.064Z,12
2022-08-12T03:28:44.211Z,13
2022-08-12T03:29:52.028Z,12
2022-08-12T03:30:57.358Z,12
2022-08-12T03:32:00.300Z,12
2022-08-12T03:33:01.768Z,12
2022-08-12T03:34:03.932Z,12
2022-08-12T03:35:06.018Z,12
2022-08-12T03:36:08.503Z,12
2022-08-12T03:37:24.040Z,12
2022-08-12T03:38:25.861Z,12
2022-08-12T03:39:37.424Z,13
2022-08-12T03:40:38.660Z,12
2022-08-12T03:41:40.990Z,12
2022-08-12T03:42:43.196Z,11
2022-08-12T03:43:49.561Z,11
2022-08-12T03:44:50.828Z,12
2022-08-12T03:45:53.301Z,11
2022-08-12T03:47:03.294Z,12
2022-08-12T03:48:04.780Z,12
2022-08-12T03:49:06.628Z,12
2022-08-12T03:50:08.485Z,13
2022-08-12T03:51:09.688Z,13
2022-08-12T03:52:13.630Z,14
2022-08-12T03:53:15.964Z,14
2022-08-12T03:54:17.313Z,14
2022-08-12T03:55:22.539Z,12
2022-08-12T03:56:24.089Z,12
2022-08-12T03:57:25.867Z,12
2022-08-12T03:58:26.852Z,12
2022-08-12T03:59:28.512Z,12
2022-08-12T04:00:30.250Z,12
2022-08-12T04:01:41.277Z,12
2022-08-12T04:02:45.639Z,12
2022-08-12T04:03:47.224Z,11
2022-08-12T04:04:50.011Z,11
2022-08-12T04:05:57.025Z,11
2022-08-12T04:06:58.416Z,11
2022-08-12T04:07:59.419Z,12
2022-08-12T04:09:01.249Z,12
2022-08-12T04:10:03.078Z,12
2022-08-12T04:11:04.346Z,12
2022-08-12T04:12:06.545Z,11
2022-08-12T04:13:11.301Z,12
2022-08-12T04:14:12.562Z,12
2022-08-12T04:15:15.192Z,12
2022-08-12T04:16:17.789Z,13
2022-08-12T04:17:19.314Z,12
2022-08-12T04:18:20.844Z,12
2022-08-12T04:19:22.895Z,12
2022-08-12T04:20:25.260Z,12
2022-08-12T04:21:30.013Z,12
2022-08-12T04:22:34.387Z,12
2022-08-12T04:23:35.942Z,12
2022-08-12T04:24:41.240Z,11
2022-08-12T04:25:47.082Z,12
2022-08-12T04:26:48.878Z,12
2022-08-12T04:27:50.291Z,12
2022-08-12T04:28:52.434Z,13
2022-08-12T04:30:33.701Z,13
2022-08-12T04:31:35.379Z,13
2022-08-12T04:32:44.370Z,14
2022-08-12T04:33:47.539Z,13
2022-08-12T04:34:49.346Z,13
2022-08-12T04:35:50.600Z,13
2022-08-12T04:36:52.670Z,11
2022-08-12T04:38:01.077Z,11
2022-08-12T04:39:03.078Z,12
2022-08-12T04:40:05.418Z,14
2022-08-12T04:41:06.987Z,15
2022-08-12T04:42:08.879Z,16
2022-08-12T04:44:02.639Z,16
2022-08-12T04:45:03.971Z,15
2022-08-12T04:46:05.260Z,15
2022-08-12T04:47:06.819Z,14
2022-08-12T04:48:09.893Z,14
2022-08-12T04:49:17.180Z,13
2022-08-12T04:50:37.220Z,13
2022-08-12T04:51:38.938Z,13
2022-08-12T04:52:40.745Z,13
2022-08-12T04:53:44.040Z,13
2022-08-12T04:54:46.380Z,14
2022-08-12T04:55:47.660Z,14
2022-08-12T04:57:05.360Z,13
2022-08-12T04:58:07.001Z,13
2022-08-12T04:59:08.290Z,12
2022-08-12T05:00:09.527Z,12
2022-08-12T05:01:10.790Z,12
2022-08-12T05:02:20.811Z,12
2022-08-12T05:03:24.382Z,12
2022-08-12T05:04:25.646Z,12
2022-08-12T05:05:26.619Z,13
2022-08-12T05:06:29.939Z,14
2022-08-12T05:07:32.641Z,13
2022-08-12T05:08:34.195Z,13
2022-08-12T05:10:02.695Z,13
2022-08-12T05:11:04.282Z,13
2022-08-12T05:12:05.281Z,14
2022-08-12T05:13:06.580Z,13
2022-08-12T05:14:07.915Z,13
2022-08-12T05:15:29.273Z,13
2022-08-12T05:16:36.668Z,13
2022-08-12T05:17:41.001Z,13
2022-08-12T05:18:48.190Z,12
2022-08-12T05:19:51.130Z,12
2022-08-12T05:21:03.105Z,11
2022-08-12T05:22:04.941Z,11
2022-08-12T05:23:13.776Z,12
2022-08-12T05:24:15.119Z,12
2022-08-12T05:25:18.744Z,12
2022-08-12T05:26:23.529Z,12
2022-08-12T05:27:25.074Z,12
2022-08-12T05:28:27.227Z,13
2022-08-12T05:30:09.294Z,12
2022-08-12T05:31:10.532Z,12
2022-08-12T05:32:12.030Z,11
2022-08-12T05:33:13.285Z,12
2022-08-12T05:34:14.907Z,12
2022-08-12T05:35:16.419Z,15
2022-08-12T05:36:24.707Z,17
2022-08-12T05:37:26.302Z,18
2022-08-12T05:38:28.421Z,18
2022-08-12T05:39:30.397Z,19
2022-08-12T05:40:32.132Z,22
2022-08-12T05:41:33.730Z,24
2022-08-12T05:42:35.257Z,25
2022-08-12T05:43:37.439Z,23
2022-08-12T05:44:39.248Z,21
2022-08-12T05:45:45.290Z,19
2022-08-12T05:46:46.425Z,21
2022-08-12T05:47:57.289Z,24
2022-08-12T05:48:58.838Z,25
2022-08-12T05:50:00.494Z,27
2022-08-12T05:51:02.302Z,27
2022-08-12T05:52:04.163Z,27
2022-08-12T05:53:05.718Z,28
2022-08-12T05:54:07.768Z,27
2022-08-12T05:55:12.154Z,26
2022-08-12T05:56:14.071Z,25
2022-08-12T05:57:16.469Z,24
2022-08-12T05:58:17.980Z,23
2022-08-12T05:59:19.853Z,21
2022-08-12T06:00:21.675Z,19
2022-08-12T06:02:13.508Z,19
2022-08-12T06:03:15.397Z,18
2022-08-12T06:04:21.056Z,18
2022-08-12T06:05:23.116Z,17
2022-08-12T06:06:29.718Z,19
2022-08-12T06:08:03.424Z,24
2022-08-12T06:09:05.467Z,31
2022-08-12T06:10:06.520Z,39
2022-08-12T06:11:07.528Z,43
2022-08-12T06:12:09.364Z,44
2022-08-12T06:13:10.768Z,40
2022-08-12T06:14:16.825Z,35
2022-08-12T06:15:19.021Z,31
2022-08-12T06:16:22.607Z,29
2022-08-12T06:17:29.602Z,28
2022-08-12T06:18:32.270Z,29
2022-08-12T06:20:30.233Z,27
2022-08-12T06:21:39.632Z,23
2022-08-12T06:22:42.455Z,22
2022-08-12T06:23:44.074Z,21
2022-08-12T06:24:46.008Z,21
2022-08-12T06:25:48.119Z,21
2022-08-12T06:26:49.969Z,19
2022-08-12T06:28:11.173Z,18
2022-08-12T06:30:12.678Z,17
2022-08-12T06:31:40.426Z,17
2022-08-12T06:33:10.755Z,17
2022-08-12T06:36:49.675Z,16
2022-08-12T06:37:57.804Z,14
2022-08-12T06:38:59.113Z,14
2022-08-12T06:40:04.342Z,14
2022-08-12T06:41:06.304Z,15
2022-08-12T06:42:33.523Z,16
2022-08-12T06:44:07.965Z,16
2022-08-12T06:45:12.904Z,16
2022-08-12T06:46:18.344Z,15
2022-08-12T06:47:20.249Z,15
2022-08-12T06:48:21.236Z,15
2022-08-12T06:49:22.462Z,15
2022-08-12T06:50:24.301Z,15
2022-08-12T06:51:26.210Z,14
2022-08-12T06:52:28.022Z,13
2022-08-12T06:53:30.405Z,13
2022-08-12T06:54:32.662Z,13
2022-08-12T06:55:34.767Z,13
2022-08-12T06:57:57.954Z,14
2022-08-12T06:59:12.041Z,13
2022-08-12T07:00:13.352Z,13
2022-08-12T07:01:15.096Z,12
2022-08-12T07:02:16.824Z,12
2022-08-12T07:03:23.930Z,12
2022-08-12T07:04:43.133Z,12
2022-08-12T07:05:44.493Z,12
2022-08-12T07:06:46.189Z,11
2022-08-12T07:07:49.682Z,11
2022-08-12T07:08:52.040Z,12
2022-08-12T07:10:08.298Z,12
2022-08-12T07:11:09.574Z,12
2022-08-12T07:12:10.859Z,13
2022-08-12T07:13:12.949Z,13
2022-08-12T07:14:14.976Z,14
2022-08-12T07:15:16.542Z,15
2022-08-12T07:16:18.156Z,16
2022-08-12T07:17:19.187Z,17
2022-08-12T07:18:20.203Z,18
2022-08-12T07:19:22.698Z,19
2022-08-12T07:20:53.537Z,20
2022-08-12T07:22:02.972Z,22
2022-08-12T07:23:04.523Z,20
2022-08-12T07:24:06.443Z,22
2022-08-12T07:25:08.081Z,23
2022-08-12T07:26:13.392Z,26
2022-08-12T07:27:17.584Z,31
2022-08-12T07:28:18.979Z,27
2022-08-12T07:29:20.300Z,23
2022-08-12T07:30:21.861Z,18
2022-08-12T07:31:22.894Z,12
2022-08-12T07:32:25.547Z,13
2022-08-12T07:33:31.099Z,13
2022-08-12T07:34:32.955Z,12
2022-08-12T07:35:34.856Z,12
2022-08-12T07:36:36.136Z,12
2022-08-12T07:37:37.150Z,12
2022-08-12T07:38:39.193Z,13
2022-08-12T07:39:59.249Z,13
2022-08-12T07:41:03.069Z,12
2022-08-12T07:42:04.850Z,12
2022-08-12T07:43:06.078Z,10
2022-08-12T07:44:08.002Z,10
2022-08-12T07:45:09.341Z,10
2022-08-12T07:46:10.650Z,10
2022-08-12T07:47:12.947Z,11
2022-08-12T07:48:19.437Z,10
2022-08-12T07:49:21.000Z,11
2022-08-12T07:50:24.182Z,11
2022-08-12T07:51:26.097Z,10
2022-08-12T07:52:27.605Z,10
2022-08-12T07:53:29.670Z,10
2022-08-12T07:54:31.244Z,12
2022-08-12T07:55:32.511Z,14
2022-08-12T07:56:34.354Z,16
2022-08-12T07:57:35.883Z,17
2022-08-12T07:58:38.249Z,16
2022-08-12T07:59:39.277Z,15
2022-08-12T08:00:41.131Z,14
2022-08-12T08:01:43.659Z,14
2022-08-12T08:02:46.181Z,13
2022-08-12T08:03:49.419Z,13
2022-08-12T08:04:50.666Z,13
2022-08-12T08:05:51.724Z,13
2022-08-12T08:06:53.277Z,14
2022-08-12T08:07:55.058Z,16
2022-08-12T08:08:57.405Z,16
2022-08-12T08:10:00.576Z,16
2022-08-12T08:11:04.567Z,15
2022-08-12T08:12:06.112Z,13
2022-08-12T08:13:07.741Z,12
2022-08-12T08:14:08.797Z,11
2022-08-12T08:15:09.993Z,10
2022-08-12T08:16:11.249Z,10
2022-08-12T08:17:13.361Z,10
2022-08-12T08:18:27.405Z,10
2022-08-12T08:19:28.710Z,10
2022-08-12T08:20:30.020Z,10
2022-08-12T08:21:31.040Z,9
2022-08-12T08:22:45.525Z,11
2022-08-12T08:23:58.934Z,13
2022-08-12T08:25:37.735Z,15
2022-08-12T08:26:39.477Z,14
2022-08-12T08:27:41.035Z,15
2022-08-12T08:28:42.632Z,15
2022-08-12T08:29:44.496Z,16
2022-08-12T08:30:45.911Z,18
2022-08-12T08:31:48.028Z,17
2022-08-12T08:32:49.364Z,14
2022-08-12T08:34:27.466Z,13
2022-08-12T08:35:55.676Z,11
2022-08-12T08:37:07.729Z,10
2022-08-12T08:38:34.978Z,10
2022-08-12T08:39:37.158Z,10
2022-08-12T08:40:38.874Z,11
2022-08-12T08:42:20.302Z,10
2022-08-12T08:43:22.240Z,10
2022-08-12T08:44:23.248Z,10
2022-08-12T08:45:24.565Z,8
2022-08-12T08:46:26.130Z,8
2022-08-12T08:47:28.017Z,8
2022-08-12T08:48:29.049Z,9
2022-08-12T08:49:30.032Z,10
2022-08-12T08:50:31.019Z,10
2022-08-12T08:51:32.330Z,11
2022-08-12T08:52:41.072Z,12
2022-08-12T08:53:53.151Z,11
2022-08-12T08:54:54.994Z,11
2022-08-12T08:56:05.756Z,10
2022-08-12T08:57:06.872Z,10
2022-08-12T08:58:09.587Z,11
2022-08-12T08:59:10.701Z,11
2022-08-12T09:00:15.873Z,12
2022-08-12T09:01:18.754Z,11
2022-08-12T09:02:21.586Z,10
2022-08-12T09:05:13.762Z,10
2022-08-12T09:06:38.317Z,11
2022-08-12T09:30:14.002Z,12
2022-08-12T09:32:09.599Z,14
2022-08-12T09:35:43.586Z,14
2022-08-12T09:37:22.266Z,16
2022-08-12T09:38:31.903Z,15
2022-08-12T09:40:58.372Z,14
2022-08-12T09:44:40.043Z,14
2022-08-12T09:46:22.211Z,11
2022-08-12T09:47:29.790Z,11
2022-08-12T09:48:39.427Z,10
2022-08-12T09:50:00.193Z,12
2022-08-12T09:51:22.815Z,12
2022-08-12T09:52:32.526Z,12
2022-08-12T09:53:39.928Z,13
2022-08-12T09:54:43.351Z,18
2022-08-12T09:57:03.436Z,20
2022-08-12T10:00:27.445Z,21
2022-08-12T10:02:54.057Z,20
2022-08-12T10:04:05.084Z,14
2022-08-12T10:05:17.508Z,12
2022-08-12T10:06:35.974Z,12
2022-08-12T10:08:05.641Z,12
2022-08-12T10:09:11.890Z,12
2022-08-12T10:10:30.194Z,12
2022-08-12T10:12:12.937Z,11
2022-08-12T10:13:41.490Z,11
2022-08-12T10:14:55.387Z,12
2022-08-12T10:16:05.785Z,12
2022-08-12T10:17:19.206Z,13
2022-08-12T10:18:26.518Z,13
2022-08-12T10:19:37.433Z,13
2022-08-12T10:20:39.041Z,12
2022-08-12T10:21:40.292Z,12
2022-08-12T10:22:49.607Z,12
2022-08-12T10:23:57.253Z,12
2022-08-12T10:24:59.067Z,13
2022-08-12T10:26:39.179Z,13
2022-08-12T10:28:11.724Z,14
2022-08-12T10:30:43.987Z,14
2022-08-12T10:32:43.336Z,13
2022-08-12T10:34:14.474Z,13
2022-08-12T10:35:38.537Z,12
2022-08-12T10:36:44.305Z,13
2022-08-12T10:38:41.319Z,12
2022-08-12T10:40:09.920Z,12
2022-08-12T10:42:00.101Z,12
2022-08-12T10:43:02.496Z,12
2022-08-12T10:44:04.057Z,13
2022-08-12T10:45:18.296Z,13
2022-08-12T10:46:32.152Z,13
2022-08-12T10:48:26.706Z,13
2022-08-12T10:50:25.526Z,13
2022-08-12T10:53:46.980Z,13
2022-08-12T10:54:49.662Z,16
2022-08-12T10:55:56.635Z,16
2022-08-12T10:57:49.270Z,16
2022-08-12T11:00:35.332Z,16
2022-08-12T11:08:33.136Z,12
2022-08-12T11:10:02.688Z,11
2022-08-12T11:11:16.824Z,11
2022-08-12T11:14:00.948Z,11
2022-08-12T11:15:24.130Z,11
2022-08-12T11:17:55.782Z,11
2022-08-12T11:19:05.789Z,12
2022-08-12T11:20:08.163Z,12
2022-08-12T11:21:17.123Z,12
2022-08-12T11:22:24.476Z,12
2022-08-12T11:23:38.192Z,11
2022-08-12T11:24:53.644Z,12
2022-08-12T11:26:06.651Z,14
2022-08-12T11:27:12.159Z,14
2022-08-12T11:28:36.715Z,15
2022-08-12T11:30:07.420Z,14
2022-08-12T11:32:02.260Z,13
2022-08-12T11:33:24.209Z,12
2022-08-12T11:36:00.299Z,12
2022-08-12T11:37:05.054Z,12
2022-08-12T11:38:27.669Z,12
2022-08-12T11:40:10.064Z,12
2022-08-12T11:41:12.556Z,11
2022-08-12T11:42:32.915Z,11
2022-08-12T11:43:59.042Z,11
2022-08-12T11:45:47.481Z,10
2022-08-12T11:46:58.582Z,11
2022-08-12T11:48:00.073Z,12
2022-08-12T11:49:03.709Z,12
2022-08-12T11:50:06.681Z,12
2022-08-12T11:51:14.034Z,13
2022-08-12T11:52:57.120Z,12
2022-08-12T11:54:01.666Z,11
2022-08-12T11:55:03.211Z,11
2022-08-12T11:56:05.566Z,12
2022-08-12T12:02:21.638Z,12
2022-08-12T12:03:23.636Z,12
2022-08-12T12:04:53.952Z,13
2022-08-12T12:06:00.993Z,14
2022-08-12T12:07:11.629Z,14
2022-08-12T12:08:43.274Z,15
2022-08-12T12:09:55.681Z,13
2022-08-12T12:10:59.653Z,13
2022-08-12T12:12:01.650Z,12
2022-08-12T12:13:22.889Z,12
2022-08-12T12:15:41.026Z,13
2022-08-12T12:16:50.922Z,14
2022-08-12T12:17:56.248Z,14
2022-08-12T12:18:57.503Z,14
2022-08-12T12:19:58.917Z,12
2022-08-12T12:21:01.197Z,12
2022-08-12T12:22:27.045Z,11
2022-08-12T12:23:36.699Z,11
2022-08-12T12:24:38.241Z,11
2022-08-12T12:26:09.804Z,11
2022-08-12T12:28:06.680Z,11
2022-08-12T12:30:29.565Z,11
2022-08-12T12:32:12.397Z,11
2022-08-12T12:33:18.637Z,11
2022-08-12T12:34:30.916Z,11
2022-08-12T12:36:20.087Z,10
2022-08-12T12:38:11.927Z,11
2022-08-12T12:39:17.857Z,11
2022-08-12T12:40:31.304Z,10
2022-08-12T12:43:04.942Z,10
2022-08-12T12:44:13.593Z,9
2022-08-12T12:45:54.937Z,8
2022-08-12T12:46:58.382Z,9
2022-08-12T12:48:02.260Z,10
2022-08-12T12:49:11.335Z,11
2022-08-12T12:50:42.303Z,11
2022-08-12T12:52:21.216Z,11
2022-08-12T12:54:10.115Z,11
2022-08-12T12:55:13.780Z,10
2022-08-12T12:56:16.446Z,11
2022-08-12T12:57:59.647Z,10
2022-08-12T12:59:02.746Z,9
2022-08-12T13:00:04.806Z,10
2022-08-12T13:01:31.951Z,10
2022-08-12T13:02:53.827Z,9
2022-08-12T13:03:55.665Z,10
2022-08-12T13:05:13.878Z,10
2022-08-12T13:06:19.500Z,9
2022-08-12T13:08:00.875Z,9
2022-08-12T13:09:05.058Z,9
2022-08-12T13:10:16.125Z,9
2022-08-12T13:11:17.506Z,9
2022-08-12T13:12:20.889Z,10
2022-08-12T13:14:12.777Z,10
2022-08-12T13:15:47.917Z,11
2022-08-12T13:16:53.860Z,11
2022-08-12T13:18:04.941Z,11
2022-08-12T13:19:08.039Z,11
2022-08-12T13:20:10.575Z,11
2022-08-12T13:21:45.091Z,10
2022-08-12T13:22:46.930Z,11
2022-08-12T13:23:53.961Z,12
2022-08-12T13:24:57.704Z,11
2022-08-12T13:26:01.397Z,12
2022-08-12T13:27:03.247Z,12
2022-08-12T13:28:08.672Z,12
2022-08-12T13:29:12.530Z,12
2022-08-12T13:30:18.219Z,11
2022-08-12T13:31:27.530Z,11
2022-08-12T13:32:31.855Z,11
2022-08-12T13:34:35.545Z,12
2022-08-12T13:36:10.238Z,12
2022-08-12T13:37:20.985Z,11
2022-08-12T13:38:55.439Z,11
2022-08-12T13:39:56.990Z,11
2022-08-12T13:40:59.201Z,10
2022-08-12T13:42:04.022Z,11
2022-08-12T13:43:41.941Z,11
2022-08-12T13:44:46.687Z,11
2022-08-12T13:45:54.675Z,11
2022-08-12T13:47:00.701Z,11
2022-08-12T13:48:29.130Z,10
2022-08-12T13:49:56.446Z,10
2022-08-12T13:51:04.533Z,10
2022-08-12T13:52:07.927Z,10
2022-08-12T13:53:40.347Z,11
2022-08-12T13:55:15.536Z,10
2022-08-12T13:56:22.589Z,9
2022-08-12T13:57:25.648Z,9
2022-08-12T13:58:27.323Z,10
2022-08-12T13:59:55.300Z,11
2022-08-12T14:01:09.353Z,12
2022-08-12T14:02:14.055Z,11
2022-08-12T14:03:50.753Z,11
2022-08-12T14:04:57.135Z,11
2022-08-12T14:05:59.643Z,11
2022-08-12T14:07:07.447Z,11
2022-08-12T14:08:09.851Z,11
2022-08-12T14:09:45.270Z,11
2022-08-12T14:10:51.782Z,12
2022-08-12T14:12:00.298Z,13
2022-08-12T14:13:03.087Z,14
2022-08-12T14:15:17.552Z,14
2022-08-12T14:16:51.309Z,13
2022-08-12T14:17:56.358Z,12
2022-08-12T14:18:58.829Z,11
2022-08-12T14:20:27.069Z,10
2022-08-12T14:22:01.725Z,10
2022-08-12T14:24:05.907Z,10
2022-08-12T14:25:17.096Z,11
2022-08-12T14:26:21.666Z,11
2022-08-12T14:28:06.403Z,11
2022-08-12T14:30:04.049Z,10
2022-08-12T14:31:32.379Z,10
2022-08-12T14:32:33.809Z,10
2022-08-12T14:33:44.703Z,10
2022-08-12T14:34:46.594Z,10
2022-08-12T14:35:48.845Z,10
2022-08-12T14:36:51.873Z,10
2022-08-12T14:37:59.177Z,10
2022-08-12T14:39:06.816Z,11
2022-08-12T14:40:09.077Z,11
2022-08-12T14:41:10.645Z,12
2022-08-12T14:42:17.379Z,12
2022-08-12T14:43:44.198Z,12
2022-08-12T14:46:08.705Z,14
2022-08-12T14:47:10.777Z,16
2022-08-12T14:48:12.953Z,15
2022-08-12T14:51:09.935Z,15
2022-08-12T14:59:24.205Z,13
2022-08-12T15:00:27.234Z,11
2022-08-12T15:01:31.192Z,9
2022-08-12T15:02:35.521Z,10
2022-08-12T15:03:58.642Z,10
2022-08-12T15:05:00.157Z,10
2022-08-12T15:06:45.213Z,10
2022-08-12T15:08:06.756Z,10
2022-08-12T15:09:29.567Z,9
2022-08-12T15:10:34.507Z,9
2022-08-12T15:12:03.619Z,8
2022-08-12T15:13:16.299Z,8
2022-08-12T15:14:22.340Z,8
2022-08-12T15:15:24.293Z,9
2022-08-12T15:16:25.872Z,9
2022-08-12T15:17:38.559Z,10
2022-08-12T15:18:57.649Z,10
2022-08-12T15:22:53.576Z,9
2022-08-12T15:23:57.714Z,9
2022-08-12T15:25:01.840Z,8
2022-08-12T15:26:08.365Z,8
2022-08-12T15:28:06.107Z,8
2022-08-12T15:29:25.689Z,9
2022-08-12T15:30:30.836Z,9
2022-08-12T15:32:03.579Z,8
2022-08-12T15:33:46.416Z,8
2022-08-12T15:34:53.988Z,8
2022-08-12T15:35:58.231Z,9
2022-08-12T15:37:09.685Z,9
2022-08-12T15:39:17.900Z,10
2022-08-12T15:40:30.901Z,10
2022-08-12T15:41:50.839Z,9
2022-08-12T15:43:08.424Z,9
2022-08-12T15:44:43.185Z,9
2022-08-12T15:45:47.847Z,10
2022-08-12T15:46:48.956Z,10
2022-08-12T15:47:52.990Z,10
2022-08-12T15:49:23.260Z,10
2022-08-12T15:50:27.239Z,8
2022-08-12T15:51:59.796Z,9
2022-08-12T15:53:15.137Z,9
2022-08-12T15:54:42.422Z,9
2022-08-12T15:55:50.992Z,9
2022-08-12T15:57:03.757Z,9
2022-08-12T15:58:11.892Z,8
2022-08-12T15:59:13.659Z,9
2022-08-12T16:01:35.959Z,9
2022-08-12T16:02:37.706Z,9
2022-08-12T16:03:59.126Z,9
2022-08-12T16:06:19.625Z,9
2022-08-12T16:08:27.737Z,9
2022-08-12T16:10:07.993Z,9
2022-08-12T16:11:16.267Z,9
2022-08-12T16:12:22.921Z,9
2022-08-12T16:13:35.233Z,9
2022-08-12T16:14:36.706Z,10
2022-08-12T16:16:03.233Z,10
2022-08-12T16:18:20.712Z,11
2022-08-12T16:20:05.656Z,11
2022-08-12T16:21:09.283Z,11
2022-08-12T16:23:21.456Z,11
2022-08-12T16:25:02.218Z,11
2022-08-12T16:26:20.267Z,10
2022-08-12T16:27:38.993Z,10
2022-08-12T16:28:41.189Z,10
2022-08-12T16:29:54.451Z,10
2022-08-12T16:30:55.435Z,10
2022-08-12T16:31:59.851Z,11
2022-08-12T16:33:05.335Z,10
2022-08-12T16:34:40.244Z,10
2022-08-12T16:36:02.010Z,10
2022-08-12T16:37:07.686Z,11
2022-08-12T16:38:28.907Z,11
2022-08-12T16:39:57.350Z,11
2022-08-12T16:41:08.644Z,12
2022-08-12T16:42:10.357Z,10
2022-08-12T16:43:13.838Z,10
2022-08-12T16:44:20.318Z,10
2022-08-12T16:46:33.637Z,9
2022-08-12T16:48:00.409Z,9
2022-08-12T16:49:15.010Z,9
2022-08-12T16:50:16.873Z,10
2022-08-12T16:51:18.484Z,10
2022-08-12T16:52:19.802Z,11
2022-08-12T16:53:45.493Z,10
2022-08-12T16:54:46.693Z,9
2022-08-12T16:55:52.216Z,10
2022-08-12T16:56:58.028Z,10
2022-08-12T16:58:28.649Z,10
2022-08-12T16:59:55.032Z,11
2022-08-12T17:01:05.851Z,10
2022-08-12T17:02:11.098Z,11
2022-08-12T17:03:36.897Z,11
2022-08-12T17:04:53.699Z,12
2022-08-12T17:05:55.754Z,12
2022-08-12T17:06:58.009Z,11
2022-08-12T17:07:59.799Z,11
2022-08-12T17:09:01.055Z,12
2022-08-12T17:10:03.451Z,12
2022-08-12T17:11:08.702Z,12
2022-08-12T17:12:20.992Z,10
2022-08-12T17:13:25.760Z,10
2022-08-12T17:14:32.245Z,10
2022-08-12T17:16:10.741Z,10
2022-08-12T17:17:39.742Z,11
2022-08-12T17:18:59.505Z,12
2022-08-12T17:20:39.606Z,12
2022-08-12T17:22:02.728Z,12
2022-08-12T17:23:13.856Z,11
2022-08-12T17:24:16.160Z,11
2022-08-12T17:25:17.856Z,11
2022-08-12T17:26:22.453Z,11
2022-08-12T17:27:37.259Z,12
2022-08-12T17:28:42.298Z,12
2022-08-12T17:30:05.378Z,13
2022-08-12T17:32:03.035Z,13
2022-08-12T17:33:07.952Z,13
2022-08-12T17:34:17.877Z,13
2022-08-12T17:35:36.512Z,13
2022-08-12T17:38:17.584Z,13
2022-08-12T17:39:18.991Z,12
2022-08-12T17:40:37.119Z,13
2022-08-12T17:41:57.722Z,12
2022-08-12T17:43:00.269Z,12
2022-08-12T17:44:56.084Z,14
2022-08-12T17:46:00.050Z,15
2022-08-12T17:47:10.982Z,16
2022-08-12T17:48:17.781Z,17
2022-08-12T17:50:04.011Z,16
2022-08-12T17:51:08.707Z,16
2022-08-12T17:52:18.264Z,17
2022-08-12T17:53:22.735Z,16
2022-08-12T17:54:23.728Z,14
2022-08-12T17:55:47.946Z,13
2022-08-12T17:56:51.974Z,12
2022-08-12T17:58:00.528Z,12
2022-08-12T17:59:02.050Z,12
2022-08-12T18:00:04.081Z,12
2022-08-12T18:01:12.122Z,12
2022-08-12T18:02:14.234Z,12
2022-08-12T18:06:00.803Z,13
2022-08-12T18:07:18.467Z,14
2022-08-12T18:08:21.702Z,14
2022-08-12T18:09:36.764Z,14